Flood From: 19-02-2018 06:00 Until: 20-02-2018 06:00 warning for: Flood Level: Yellow info button

Although rather usual in this region, locally or potentially dangerous phenomena are expected. (such as local winds, summer thunderstorms, rising streams or high waves) Be aware and pay attention to the latest weather updates, especially if you carry out activities exposed to weather or close to a stream or shoreline. 


Meteo18 Weather Cam more information Meteo18 Weather Cam


Thunder radar more information blitzortung!


Rain radar more information rain snow radar


Visit our other weather sites:

Template documentation
and downloads

And another site



Weather Underground History page Text

Daily Summary for April 29, 2017 Units:  English    Metric   Both
« Previous Day
Next Day »
Daily Weekly Monthly Yearly Custom
  High: Low: Average:
Temperature: TemperatureC °F 0.8 °F 9.7 °F
Dew Point: DewpointC °F 0.1 °F 3 °F
Humidity: Humidity % 38 % 67 %
Wind Speed: WindSpeedKMH mph 0.0 mph 3.1 mph
Wind Gust: WindSpeedGustKMH mph - -
Wind:- - ESE
Pressure: PressurehPa in 1010.4 in -
Precipitation: 0.0 in    
Historical Graphs
 
 
Tabular Data for April 29, 2017
Time Temperature Dew Point Pressure Wind Wind Speed Wind Gust Humidity Rainfall Rate (Hourly)
TemperatureC °F DewpointC °F PressurehPa in Calm     Humidity % HourlyPrecipMM in
00:02 5.5 °F 3.8 °F 1019.2 in Calm   1.6 mph 89 % 0.0 in
00:12 5.5 °F 4.0 °F 1019.2 in Calm   1.6 mph 90 % 0.0 in
00:17 5.5 °F 4.0 °F 1019.5 in Calm   1.6 mph 90 % 0.0 in
00:22 5.6 °F 4.1 °F 1019.5 in Calm   1.6 mph 90 % 0.0 in
00:32 5.6 °F 3.9 °F 1019.5 in Calm     89 % 0.0 in
00:42 5.5 °F 4.0 °F 1019.2 in Calm   1.6 mph 90 % 0.0 in
00:52 5.4 °F 3.9 °F 1019.5 in Calm   1.6 mph 90 % 0.0 in
00:57 5.4 °F 3.9 °F 1019.2 in Calm     90 % 0.0 in
01:02 5.3 °F 3.8 °F 1019.2 in Calm     90 % 0.0 in
01:12 5.1 °F 3.8 °F 1019.2 in Calm     91 % 0.0 in
01:17 5.1 °F 3.8 °F 1019.2 in Calm     91 % 0.0 in
01:22 5.1 °F 3.8 °F 1019.2 in Calm     91 % 0.0 in
01:27 4.9 °F 3.6 °F 1019.2 in Calm     91 % 0.0 in
01:37 4.6 °F 3.3 °F 1019.2 in Calm   1.6 mph 91 % 0.0 in
01:42 4.4 °F 3.1 °F 1019.2 in Calm   1.6 mph 91 % 0.0 in
01:47 4.3 °F 3.0 °F 1019.2 in Calm     91 % 0.0 in
01:52 4.3 °F 3.1 °F 1019.2 in Calm     92 % 0.0 in
01:57 4.3 °F 3.1 °F 1019.2 in Calm     92 % 0.0 in
02:02 4.4 °F 3.2 °F 1018.8 in Calm     92 % 0.0 in
02:12 4.2 °F 3.0 °F 1019.2 in Calm     92 % 0.0 in
02:17 4.2 °F 3.0 °F 1018.8 in Calm     92 % 0.0 in
02:22 4.2 °F 3.2 °F 1019.2 in Calm     93 % 0.0 in
02:32 4.2 °F 3.2 °F 1018.8 in Calm     93 % 0.0 in
02:37 4.1 °F 3.1 °F 1019.2 in Calm     93 % 0.0 in
02:42 4.1 °F 3.1 °F 1018.8 in Calm     93 % 0.0 in
02:52 3.9 °F 2.9 °F 1018.8 in Calm     93 % 0.0 in
02:57 3.6 °F 2.4 °F 1018.8 in Calm     92 % 0.0 in
03:02 3.6 °F 2.6 °F 1018.8 in WNW 1.6 mph   93 % 0.0 in
03:07 3.5 °F 2.5 °F 1018.8 in Calm   1.6 mph 93 % 0.0 in
03:12 3.6 °F 2.7 °F 1018.8 in Calm   1.6 mph 94 % 0.0 in
03:17 3.9 °F 3.0 °F 1018.8 in Calm   1.6 mph 94 % 0.0 in
03:22 3.9 °F 3.0 °F 1018.8 in Calm   1.6 mph 94 % 0.0 in
03:27 3.8 °F 2.9 °F 1018.8 in Calm   1.6 mph 94 % 0.0 in
03:32 3.6 °F 2.7 °F 1018.8 in Calm   1.6 mph 94 % 0.0 in
03:42 3.2 °F 2.2 °F 1018.8 in Calm     93 % 0.0 in
03:52 3.3 °F 2.6 °F 1018.8 in Calm     95 % 0.0 in
03:57 3.2 °F 2.3 °F 1018.8 in Calm     94 % 0.0 in
04:02 3.3 °F 2.6 °F 1018.8 in Calm     95 % 0.0 in
04:12 3.1 °F 2.2 °F 1018.8 in Calm     94 % 0.0 in
04:17 3.1 °F 2.4 °F 1018.8 in North 1.6 mph 1.6 mph 95 % 0.0 in
04:22 3.2 °F 2.5 °F 1018.8 in Calm   3.2 mph 95 % 0.0 in
04:32 2.8 °F 1.9 °F 1018.8 in Calm   3.2 mph 94 % 0.0 in
04:37 2.8 °F 2.1 °F 1018.8 in NW 1.6 mph 1.6 mph 95 % 0.0 in
04:42 2.8 °F 2.1 °F 1018.8 in Calm   1.6 mph 95 % 0.0 in
04:47 2.7 °F 2.0 °F 1018.8 in Calm   1.6 mph 95 % 0.0 in
04:52 2.5 °F 1.6 °F 1018.8 in Calm   1.6 mph 94 % 0.0 in
04:57 2.3 °F 1.4 °F 1018.8 in Calm   1.6 mph 94 % 0.0 in
05:02 2.4 °F 1.7 °F 1018.8 in Calm     95 % 0.0 in
05:12 1.9 °F 1.0 °F 1018.5 in Calm   1.6 mph 94 % 0.0 in
05:17 1.9 °F 1.2 °F 1018.5 in WNW 1.6 mph 1.6 mph 95 % 0.0 in
05:22 2.1 °F 1.4 °F 1018.5 in Calm   1.6 mph 95 % 0.0 in
05:32 2.0 °F 1.3 °F 1018.5 in WNW 1.6 mph 1.6 mph 95 % 0.0 in
05:37 2.1 °F 1.4 °F 1018.5 in WNW 1.6 mph 1.6 mph 95 % 0.0 in
05:42 2.1 °F 1.4 °F 1018.5 in Calm   1.6 mph 95 % 0.0 in
05:52 2.3 °F 1.7 °F 1018.5 in Calm   1.6 mph 96 % 0.0 in
05:57 2.2 °F 1.5 °F 1018.5 in Calm   1.6 mph 95 % 0.0 in
06:02 2.2 °F 1.5 °F 1018.5 in Calm   1.6 mph 95 % 0.0 in
06:12 2.1 °F 1.5 °F 1018.5 in NNE 1.6 mph 1.6 mph 96 % 0.0 in
06:17 1.5 °F 0.6 °F 1018.2 in Calm   1.6 mph 94 % 0.0 in
06:22 1.2 °F 0.5 °F 1018.5 in Calm   1.6 mph 95 % 0.0 in
06:32 1.2 °F 0.5 °F 1018.5 in Calm   1.6 mph 95 % 0.0 in
06:37 0.9 °F 0.2 °F 1018.5 in Calm     95 % 0.0 in
06:42 0.8 °F 0.1 °F 1018.2 in Calm     95 % 0.0 in
06:47 0.8 °F 0.1 °F 1018.2 in Calm     95 % 0.0 in
06:52 0.8 °F 0.2 °F 1018.2 in Calm     96 % 0.0 in
07:02 1.1 °F 0.5 °F 1018.2 in Calm     96 % 0.0 in
07:07 1.1 °F 0.5 °F 1018.2 in Calm     96 % 0.0 in
07:12 1.1 °F 0.5 °F 1018.2 in Calm     96 % 0.0 in
07:17 1.1 °F 0.4 °F 1018.2 in Calm     95 % 0.0 in
07:22 1.3 °F 0.6 °F 1018.2 in Calm     95 % 0.0 in
07:27 1.2 °F 0.5 °F 1018.2 in Calm     95 % 0.0 in
07:32 1.2 °F 0.5 °F 1018.2 in Calm     95 % 0.0 in
07:42 1.9 °F 1.3 °F 1018.2 in Calm     96 % 0.0 in
07:52 2.1 °F 1.4 °F 1018.2 in Calm     95 % 0.0 in
08:02 2.4 °F 1.7 °F 1018.2 in Calm     95 % 0.0 in
08:12 2.4 °F 1.7 °F 1018.2 in NNE 1.6 mph 1.6 mph 95 % 0.0 in
08:22 2.9 °F 2.2 °F 1018.2 in Calm   3.2 mph 95 % 0.0 in
08:32 4.0 °F 3.4 °F 1018.5 in Calm     96 % 0.0 in
08:37 4.5 °F 3.9 °F 1018.5 in Calm     96 % 0.0 in
08:42 5.3 °F 4.7 °F 1018.2 in Calm     96 % 0.0 in
08:47 5.7 °F 5.0 °F 1018.2 in Calm     95 % 0.0 in
08:52 5.9 °F 5.0 °F 1018.2 in Calm     94 % 0.0 in
09:02 6.3 °F 5.3 °F 1018.2 in Calm     93 % 0.0 in
09:07 6.9 °F 5.7 °F 1018.2 in Calm     92 % 0.0 in
09:12 7.1 °F 5.2 °F 1018.2 in Calm     88 % 0.0 in
09:17 7.4 °F 5.5 °F 1018.2 in Calm     88 % 0.0 in
09:27 7.9 °F 5.2 °F 1018.2 in Calm     83 % 0.0 in
09:32 7.9 °F 5.0 °F 1018.2 in Calm     82 % 0.0 in
09:37 8.2 °F 5.1 °F 1018.2 in Calm     81 % 0.0 in
09:42 8.4 °F 5.3 °F 1018.2 in Calm   1.6 mph 81 % 0.0 in
09:47 8.6 °F 5.3 °F 1018.2 in ENE 3.2 mph 3.2 mph 80 % 0.0 in
09:52 8.7 °F 5.4 °F 1018.2 in Calm   4.8 mph 80 % 0.0 in
10:02 9.3 °F 5.8 °F 1018.2 in SE 3.2 mph 4.8 mph 79 % 0.0 in
10:12 9.6 °F 5.6 °F 1018.2 in ENE 3.2 mph 3.2 mph 76 % 0.0 in
10:17 9.7 °F 5.7 °F 1018.2 in NE 3.2 mph 3.2 mph 76 % 0.0 in
10:22 9.7 °F 5.5 °F 1018.2 in ENE 1.6 mph 6.4 mph 75 % 0.0 in
10:27 10.2 °F 6.0 °F 1017.8 in East 3.2 mph 6.4 mph 75 % 0.0 in
10:32 10.3 °F 5.7 °F 1017.8 in ESE 3.2 mph 6.4 mph 73 % 0.0 in
10:42 10.6 °F 5.8 °F 1017.8 in Calm   8.0 mph 72 % 0.0 in
10:47 11.1 °F 5.8 °F 1017.8 in SE 4.8 mph 8.0 mph 70 % 0.0 in
10:52 11.3 °F 6.0 °F 1017.8 in SSW 3.2 mph 9.7 mph 70 % 0.0 in
11:02 11.9 °F 6.2 °F 1017.8 in ESE 3.2 mph 9.7 mph 68 % 0.0 in
11:12 11.8 °F 5.9 °F 1017.8 in East 3.2 mph 12.9 mph 67 % 0.0 in
11:17 12.0 °F 6.5 °F 1017.8 in Calm   12.9 mph 69 % 0.0 in
11:22 12.4 °F 6.0 °F 1017.8 in SW 3.2 mph 11.3 mph 65 % 0.0 in
11:32 12.9 °F 6.0 °F 1017.8 in SE 6.4 mph 9.7 mph 63 % 0.0 in
11:42 13.3 °F 5.5 °F 1017.8 in ESE 4.8 mph 14.5 mph 59 % 0.0 in
11:47 13.2 °F 5.8 °F 1017.5 in East 8.0 mph 14.5 mph 61 % 0.0 in
11:52 13.4 °F 5.8 °F 1017.5 in SW 3.2 mph 11.3 mph 60 % 0.0 in
11:57 13.8 °F 4.9 °F 1017.5 in SE 6.4 mph 11.3 mph 55 % 0.0 in
12:02 13.5 °F 5.1 °F 1017.5 in East 1.6 mph 11.3 mph 57 % 0.0 in
12:12 13.4 °F 4.5 °F 1017.5 in South 4.8 mph 14.5 mph 55 % 0.0 in
12:17 13.6 °F 5.0 °F 1017.5 in SE 1.6 mph 14.5 mph 56 % 0.0 in
12:22 13.7 °F 4.3 °F 1017.2 in SE 3.2 mph 14.5 mph 53 % 0.0 in
12:32 13.9 °F 3.9 °F 1017.2 in SE 6.4 mph 14.5 mph 51 % 0.0 in
12:37 13.9 °F 3.6 °F 1017.2 in East 4.8 mph 14.5 mph 50 % 0.0 in
12:42 14.3 °F 3.4 °F 1017.2 in SSW 14.5 mph 14.5 mph 48 % 0.0 in
12:47 14.4 °F 4.7 °F 1017.2 in NE 1.6 mph 12.9 mph 52 % 0.0 in
12:52 14.6 °F 5.4 °F 1017.2 in East 8.0 mph 16.1 mph 54 % 0.0 in
13:02 14.4 °F 4.7 °F 1016.8 in East 11.3 mph 16.1 mph 52 % 0.0 in
13:07 14.1 °F 3.8 °F 1016.8 in East 8.0 mph 16.1 mph 50 % 0.0 in
13:12 14.4 °F 3.5 °F 1016.8 in South 8.0 mph 16.1 mph 48 % 0.0 in
13:17 14.6 °F 3.4 °F 1016.5 in SE 3.2 mph 16.1 mph 47 % 0.0 in
13:22 14.7 °F 2.2 °F 1016.5 in East 3.2 mph 17.7 mph 43 % 0.0 in
13:32 15.1 °F 3.3 °F 1016.5 in SSW 8.0 mph 12.9 mph 45 % 0.0 in
13:37 14.8 °F 3.6 °F 1016.5 in East 6.4 mph 12.9 mph 47 % 0.0 in
13:42 15.0 °F 2.8 °F 1016.1 in East 9.7 mph 14.5 mph 44 % 0.0 in
13:52 14.7 °F 2.2 °F 1016.1 in ENE 3.2 mph 14.5 mph 43 % 0.0 in
14:02 15.3 °F 2.8 °F 1015.8 in East 8.0 mph 16.1 mph 43 % 0.0 in
14:12 14.9 °F 3.1 °F 1015.8 in NE 4.8 mph 16.1 mph 45 % 0.0 in
14:17 14.7 °F 3.2 °F 1015.8 in East 1.6 mph 16.1 mph 46 % 0.0 in
14:22 14.6 °F 3.7 °F 1015.8 in ENE 3.2 mph 16.1 mph 48 % 0.0 in
14:32 14.4 °F 3.8 °F 1015.5 in ENE 4.8 mph 17.7 mph 49 % 0.0 in
14:42 14.4 °F 4.4 °F 1015.5 in SSE 6.4 mph 17.7 mph 51 % 0.0 in
14:52 15.1 °F 3.9 °F 1015.5 in ESE 6.4 mph 17.7 mph 47 % 0.0 in
15:02 14.8 °F 3.9 °F 1015.1 in East 1.6 mph 11.3 mph 48 % 0.0 in
15:12 14.6 °F 3.4 °F 1015.1 in South 4.8 mph 9.7 mph 47 % 0.0 in
15:17 15.1 °F 3.9 °F 1015.1 in East 8.0 mph 16.1 mph 47 % 0.0 in
15:22 15.1 °F 3.6 °F 1015.1 in East 11.3 mph 16.1 mph 46 % 0.0 in
15:32 15.5 °F 3.6 °F 1014.8 in ESE 4.8 mph 16.1 mph 45 % 0.0 in
15:37 15.9 °F 4.3 °F 1014.8 in SSW 8.0 mph 16.1 mph 46 % 0.0 in
15:42 15.8 °F 4.2 °F 1014.8 in ESE 8.0 mph 16.1 mph 46 % 0.0 in
15:47 16.2 °F 3.9 °F 1014.8 in ESE 4.8 mph 17.7 mph 44 % 0.0 in
15:52 16.8 °F 3.5 °F 1014.4 in ESE 11.3 mph 20.9 mph 41 % 0.0 in
15:57 16.6 °F 3.6 °F 1014.4 in SE 11.3 mph 20.9 mph 42 % 0.0 in
16:02 16.1 °F 3.5 °F 1014.4 in ENE 4.8 mph 20.9 mph 43 % 0.0 in
16:07 15.6 °F 3.7 °F 1014.4 in ESE 1.6 mph 24.1 mph 45 % 0.0 in
16:12 15.8 °F 4.2 °F 1014.4 in ESE 3.2 mph 24.1 mph 46 % 0.0 in
16:17 16.3 °F 3.4 °F 1014.1 in SSE 3.2 mph 24.1 mph 42 % 0.0 in
16:22 16.1 °F 3.2 °F 1014.1 in ESE 6.4 mph 17.7 mph 42 % 0.0 in
16:27 15.9 °F 3.7 °F 1014.1 in East 6.4 mph 14.5 mph 44 % 0.0 in
16:32 16.1 °F 3.8 °F 1014.1 in East 9.7 mph 14.5 mph 44 % 0.0 in
16:42 16.6 °F 3.6 °F 1013.8 in ENE 4.8 mph 14.5 mph 42 % 0.0 in
16:47 16.9 °F 3.2 °F 1013.8 in SSE 3.2 mph 17.7 mph 40 % 0.0 in
16:52 17.1 °F 3.4 °F 1013.4 in SSE 3.2 mph 17.7 mph 40 % 0.0 in
16:57 16.8 °F 3.5 °F 1013.4 in SE 12.9 mph 16.1 mph 41 % 0.0 in
17:02 16.7 °F 3.4 °F 1013.4 in SSE 6.4 mph 24.1 mph 41 % 0.0 in
17:12 16.6 °F 4.0 °F 1013.4 in ESE 3.2 mph 24.1 mph 43 % 0.0 in
17:17 16.6 °F 3.3 °F 1013.1 in East 11.3 mph 19.3 mph 41 % 0.0 in
17:22 16.5 °F 2.9 °F 1013.1 in SE 8.0 mph 25.7 mph 40 % 0.0 in
17:27 16.6 °F 3.3 °F 1013.1 in SW 8.0 mph 25.7 mph 41 % 0.0 in
17:32 16.7 °F 3.4 °F 1013.1 in ENE 6.4 mph 25.7 mph 41 % 0.0 in
17:37 16.7 °F 3.0 °F 1013.1 in ESE 16.1 mph 22.5 mph 40 % 0.0 in
17:42 16.6 °F 2.9 °F 1013.1 in SE 9.7 mph 22.5 mph 40 % 0.0 in
17:52 16.7 °F 3.7 °F 1012.8 in ESE 1.6 mph 20.9 mph 42 % 0.0 in
17:57 16.9 °F 3.6 °F 1012.8 in East 4.8 mph 22.5 mph 41 % 0.0 in
18:02 16.7 °F 3.4 °F 1012.8 in East 6.4 mph 22.5 mph 41 % 0.0 in
18:07 16.5 °F 2.9 °F 1012.8 in East 8.0 mph 20.9 mph 40 % 0.0 in
18:12 16.6 °F 3.3 °F 1012.8 in SE 4.8 mph 20.9 mph 41 % 0.0 in
18:17 16.6 °F 2.9 °F 1012.8 in SSE 4.8 mph 22.5 mph 40 % 0.0 in
18:22 16.8 °F 2.4 °F 1012.8 in ESE 12.9 mph 22.5 mph 38 % 0.0 in
18:32 16.6 °F 2.6 °F 1012.4 in East 3.2 mph 17.7 mph 39 % 0.0 in
18:42 16.6 °F 2.6 °F 1012.4 in SSE 6.4 mph 19.3 mph 39 % 0.0 in
18:47 16.6 °F 2.6 °F 1012.1 in SE 4.8 mph 16.1 mph 39 % 0.0 in
18:52 16.6 °F 2.2 °F 1012.1 in ESE 4.8 mph 16.1 mph 38 % 0.0 in
19:02 16.3 °F 2.3 °F 1012.1 in SE 14.5 mph 17.7 mph 39 % 0.0 in
19:12 16.3 °F 2.3 °F 1012.1 in ESE 4.8 mph 17.7 mph 39 % 0.0 in
19:17 16.2 °F 2.2 °F 1012.1 in SSE 4.8 mph 14.5 mph 39 % 0.0 in
19:22 16.2 °F 2.2 °F 1011.7 in ESE 8.0 mph 19.3 mph 39 % 0.0 in
19:27 16.1 °F 2.1 °F 1011.7 in East 6.4 mph 19.3 mph 39 % 0.0 in
19:32 15.9 °F 1.6 °F 1011.7 in South 11.3 mph 19.3 mph 38 % 0.0 in
19:42 15.7 °F 1.8 °F 1011.7 in ESE 8.0 mph 19.3 mph 39 % 0.0 in
19:47 15.6 °F 2.0 °F 1011.7 in SE 4.8 mph 19.3 mph 40 % 0.0 in
19:52 15.4 °F 1.9 °F 1011.7 in SE 1.6 mph 19.3 mph 40 % 0.0 in
19:57 15.3 °F 2.1 °F 1011.7 in ESE 6.4 mph 16.1 mph 41 % 0.0 in
20:02 15.1 °F 2.3 °F 1011.7 in ENE 3.2 mph 14.5 mph 42 % 0.0 in
20:12 14.7 °F 2.2 °F 1011.7 in ESE 3.2 mph 12.9 mph 43 % 0.0 in
20:17 14.6 °F 2.5 °F 1011.7 in SE 1.6 mph 11.3 mph 44 % 0.0 in
20:27 14.2 °F 2.1 °F 1011.4 in SE 4.8 mph 8.0 mph 44 % 0.0 in
20:32 14.2 °F 1.8 °F 1011.4 in ESE 3.2 mph 6.4 mph 43 % 0.0 in
20:42 13.7 °F 2.0 °F 1011.4 in East 6.4 mph 9.7 mph 45 % 0.0 in
20:52 13.2 °F 1.8 °F 1011.4 in East 4.8 mph 9.7 mph 46 % 0.0 in
20:57 13.1 °F 1.7 °F 1011.4 in ENE 3.2 mph 8.0 mph 46 % 0.0 in
21:02 12.9 °F 1.9 °F 1011.4 in East 6.4 mph 9.7 mph 47 % 0.0 in
21:12 12.6 °F 1.9 °F 1011.4 in East 4.8 mph 9.7 mph 48 % 0.0 in
21:17 12.6 °F 1.9 °F 1011.4 in East 4.8 mph 9.7 mph 48 % 0.0 in
21:22 12.5 °F 1.8 °F 1011.4 in East 3.2 mph 9.7 mph 48 % 0.0 in
21:32 12.4 °F 1.4 °F 1011.4 in ESE 1.6 mph 9.7 mph 47 % 0.0 in
21:42 12.3 °F 1.6 °F 1011.4 in East 3.2 mph 8.0 mph 48 % 0.0 in
21:47 12.3 °F 1.6 °F 1011.4 in East 3.2 mph 8.0 mph 48 % 0.0 in
21:52 12.2 °F 1.5 °F 1011.4 in East 3.2 mph 8.0 mph 48 % 0.0 in
21:57 12.2 °F 1.5 °F 1011.4 in ENE 3.2 mph 8.0 mph 48 % 0.0 in
22:02 12.1 °F 1.7 °F 1011.4 in ENE 3.2 mph 9.7 mph 49 % 0.0 in
22:07 11.8 °F 1.7 °F 1011.4 in ENE 3.2 mph 9.7 mph 50 % 0.0 in
22:12 11.8 °F 1.7 °F 1011.1 in ENE 3.2 mph 9.7 mph 50 % 0.0 in
22:17 11.8 °F 1.7 °F 1011.1 in ENE 4.8 mph 9.7 mph 50 % 0.0 in
22:22 11.7 °F 1.6 °F 1011.1 in ENE 3.2 mph 8.0 mph 50 % 0.0 in
22:27 11.4 °F 1.6 °F 1011.1 in ENE 3.2 mph 9.7 mph 51 % 0.0 in
22:32 11.3 °F 1.8 °F 1011.1 in ENE 3.2 mph 9.7 mph 52 % 0.0 in
22:42 11.0 °F 1.8 °F 1011.1 in ENE 3.2 mph 9.7 mph 53 % 0.0 in
22:47 10.7 °F 1.8 °F 1011.1 in ENE 3.2 mph 9.7 mph 54 % 0.0 in
22:52 10.5 °F 1.8 °F 1011.1 in NE 4.8 mph 9.7 mph 55 % 0.0 in
23:02 10.4 °F 1.7 °F 1011.1 in NE 4.8 mph 8.0 mph 55 % 0.0 in
23:07 10.3 °F 1.9 °F 1011.1 in NE 6.4 mph 6.4 mph 56 % 0.0 in
23:12 10.1 °F 2.0 °F 1011.1 in NE 4.8 mph 6.4 mph 57 % 0.0 in
23:17 9.9 °F 2.0 °F 1011.1 in NE 4.8 mph 8.0 mph 58 % 0.0 in
23:22 9.7 °F 1.8 °F 1010.7 in NE 4.8 mph 8.0 mph 58 % 0.0 in
23:32 9.7 °F 2.1 °F 1010.7 in NE 4.8 mph 8.0 mph 59 % 0.0 in
23:37 9.7 °F 2.1 °F 1010.7 in NE 3.2 mph 8.0 mph 59 % 0.0 in
23:42 9.6 °F 2.0 °F 1010.7 in NE 3.2 mph 8.0 mph 59 % 0.0 in
23:47 9.5 °F 2.1 °F 1010.7 in NE 1.6 mph 6.4 mph 60 % 0.0 in
23:52 9.4 °F 2.0 °F 1010.4 in NE 3.2 mph 6.4 mph 60 % 0.0 in
23:57 9.3 °F 1.9 °F 1010.4 in NE 3.2 mph 6.4 mph 60 % 0.0 in
Meteo18
Compliments of Weather Underground - 4 mb

Script developed by  Jim McMurry - jmcmurry@mwt.net Adapted for the template by  Wim van der Kuil - Leuven-Template.eu

You find our weather info also at:

European Weather Network

Weather Underground

Equipment we use:

Weather-station
Davis Vue

Weather-program
Meteobridge

Weather-server
Raspberry PI 2 B+

Provider
1 and 1

Davis Vue

Meteobridge

Raspberry PI 2 B+

1 and 1